Time;durP1;ratioP1;P1;durP2;ratioP2;P2;SDS_P1;SDS_P2;PMS_P1;PMS_P2;Temp;Humidity;BMP_temperature;BMP_pressure;BME280_temperature;BME280_humidity;BME280_pressure;Samples;Min_cycle;Max_cycle;Signal;HPM_P1;HPM_P2
2023/02/18 00:00:27;;;;;;;10.48;8.45;;;12.20;99.90;;;;;;4198641;28;20396;-67
2023/02/18 00:02:28;;;;;;;11.48;8.77;;;12.20;99.90;;;;;;4199966;28;20475;-68
2023/02/18 00:04:28;;;;;;;15.75;9.38;;;12.20;99.90;;;;;;4204954;28;20059;-68
2023/02/18 00:06:32;;;;;;;11.00;8.65;;;12.20;99.90;;;;;;4197917;28;20086;-67
2023/02/18 00:08:32;;;;;;;12.05;9.23;;;12.20;99.90;;;;;;4202597;28;20073;-68
2023/02/18 00:10:33;;;;;;;11.85;8.75;;;12.20;99.90;;;;;;4201108;28;20047;-68
2023/02/18 00:12:34;;;;;;;11.82;8.48;;;12.20;99.90;;;;;;4199896;28;20031;-67
2023/02/18 00:14:34;;;;;;;12.02;9.02;;;12.20;99.90;;;;;;4198607;28;20028;-68
2023/02/18 00:16:35;;;;;;;14.45;8.52;;;12.20;99.90;;;;;;4195611;28;20563;-68
2023/02/18 00:18:37;;;;;;;11.10;8.85;;;12.20;99.90;;;;;;4202778;28;20380;-68
2023/02/18 00:20:38;;;;;;;11.48;8.88;;;12.20;99.90;;;;;;4196495;28;20505;-68
2023/02/18 00:22:39;;;;;;;15.70;10.05;;;12.20;99.90;;;;;;4199662;28;20028;-68
2023/02/18 00:24:39;;;;;;;13.50;9.50;;;12.20;99.90;;;;;;4197080;28;20043;-68
2023/02/18 00:26:40;;;;;;;10.73;8.82;;;12.20;99.90;;;;;;4203817;28;20047;-67
2023/02/18 00:28:41;;;;;;;15.45;9.75;;;12.20;99.90;;;;;;4202920;28;20039;-68
2023/02/18 00:30:43;;;;;;;14.45;10.27;;;12.20;99.90;;;;;;4198401;28;20471;-68
2023/02/18 00:32:43;;;;;;;16.42;10.45;;;12.10;99.90;;;;;;4197906;28;20403;-67
2023/02/18 00:34:44;;;;;;;12.90;9.60;;;12.10;99.90;;;;;;4206343;28;20033;-68
2023/02/18 00:36:44;;;;;;;11.23;9.68;;;12.10;99.90;;;;;;4204423;28;20024;-68
2023/02/18 00:38:49;;;;;;;14.55;10.43;;;12.10;99.90;;;;;;4195459;28;20415;-67
2023/02/18 00:40:49;;;;;;;13.60;10.27;;;12.10;99.90;;;;;;4202426;28;20452;-68
2023/02/18 00:42:50;;;;;;;14.07;9.57;;;12.10;99.90;;;;;;4193694;28;20032;-68
2023/02/18 00:44:50;;;;;;;14.77;10.50;;;12.10;99.90;;;;;;4195159;28;20024;-68
2023/02/18 00:46:52;;;;;;;15.18;10.18;;;12.10;99.90;;;;;;4202215;28;20035;-68
2023/02/18 00:48:53;;;;;;;16.42;10.07;;;12.10;99.90;;;;;;4201078;28;20036;-68
2023/02/18 00:50:54;;;;;;;13.43;10.45;;;12.10;99.90;;;;;;4196444;28;20041;-67
2023/02/18 00:52:54;;;;;;;14.15;10.10;;;12.10;99.90;;;;;;4201419;28;20035;-68
2023/02/18 00:54:55;;;;;;;13.98;10.50;;;12.10;99.90;;;;;;4205393;28;20040;-68
2023/02/18 00:56:55;;;;;;;13.73;9.77;;;12.10;99.90;;;;;;4205021;28;20036;-68
2023/02/18 00:58:56;;;;;;;15.93;11.00;;;12.10;99.90;;;;;;4197778;28;20044;-68
2023/02/18 01:00:57;;;;;;;16.50;11.02;;;12.10;99.90;;;;;;4197034;28;20060;-68
2023/02/18 01:02:57;;;;;;;14.95;10.55;;;12.10;99.90;;;;;;4201288;28;20032;-68
2023/02/18 01:04:58;;;;;;;15.02;10.02;;;12.10;99.90;;;;;;4207508;28;20041;-68
2023/02/18 01:06:58;;;;;;;15.68;10.18;;;12.10;99.90;;;;;;4203276;28;20447;-68
2023/02/18 01:08:59;;;;;;;15.25;10.98;;;12.20;99.90;;;;;;4203070;28;20028;-68
2023/02/18 01:11:00;;;;;;;16.15;11.02;;;12.10;99.90;;;;;;4205890;28;20073;-68
2023/02/18 01:13:03;;;;;;;14.82;10.00;;;12.10;99.90;;;;;;4200573;28;20067;-68
2023/02/18 01:15:05;;;;;;;15.60;10.55;;;12.10;99.90;;;;;;4203221;28;20039;-68
2023/02/18 01:17:06;;;;;;;18.08;10.98;;;12.10;99.90;;;;;;4191468;28;20029;-68
2023/02/18 01:19:07;;;;;;;18.00;12.02;;;12.10;99.90;;;;;;4204996;28;20039;-67
2023/02/18 01:21:08;;;;;;;16.08;11.20;;;12.00;99.90;;;;;;4199582;28;20056;-68
2023/02/18 01:23:09;;;;;;;15.77;9.90;;;12.00;99.90;;;;;;4203401;28;20532;-68
2023/02/18 01:25:10;;;;;;;15.63;10.60;;;12.00;99.90;;;;;;4201013;28;20115;-68
2023/02/18 01:27:10;;;;;;;15.13;11.02;;;12.00;99.90;;;;;;4205440;28;20048;-67
2023/02/18 01:29:11;;;;;;;14.57;10.40;;;12.00;99.90;;;;;;4200981;28;20589;-68
2023/02/18 01:31:13;;;;;;;13.05;9.57;;;12.00;99.90;;;;;;4199202;28;20376;-68
2023/02/18 01:33:13;;;;;;;15.13;10.93;;;12.00;99.90;;;;;;4208014;28;20482;-68
2023/02/18 01:35:16;;;;;;;12.27;9.60;;;12.00;99.90;;;;;;4204237;28;20047;-68
2023/02/18 01:37:17;;;;;;;14.48;9.85;;;12.00;99.90;;;;;;4197040;28;20435;-68
2023/02/18 01:39:18;;;;;;;14.75;9.38;;;12.00;99.90;;;;;;4208840;28;20032;-68
2023/02/18 01:41:19;;;;;;;12.75;9.48;;;12.00;99.90;;;;;;4201411;28;20058;-68
2023/02/18 01:43:21;;;;;;;13.80;9.20;;;12.00;99.90;;;;;;4201722;28;20067;-68
2023/02/18 01:45:33;;;;;;;11.30;8.27;;;12.00;99.90;;;;;;4200723;28;20467;-68
2023/02/18 01:47:34;;;;;;;12.13;8.75;;;12.00;99.90;;;;;;4201514;28;20043;-67
2023/02/18 01:49:36;;;;;;;11.45;8.82;;;12.00;99.90;;;;;;4200326;28;20566;-68
2023/02/18 01:51:40;;;;;;;11.10;8.32;;;12.00;99.90;;;;;;4194530;28;21030;-68
2023/02/18 01:53:44;;;;;;;10.45;8.07;;;12.00;99.90;;;;;;4197824;28;20037;-68
2023/02/18 01:55:46;;;;;;;10.95;8.38;;;12.00;99.90;;;;;;4204728;28;20070;-67
2023/02/18 01:57:47;;;;;;;14.75;8.35;;;12.00;99.90;;;;;;4205326;28;20436;-67
2023/02/18 01:59:57;;;;;;;10.55;8.05;;;12.00;99.90;;;;;;4197265;28;20032;-68
2023/02/18 02:01:58;;;;;;;10.05;7.55;;;11.90;99.90;;;;;;4187693;28;20040;-68
2023/02/18 02:03:58;;;;;;;10.10;7.13;;;12.00;99.90;;;;;;4195228;28;20035;-68
2023/02/18 02:05:59;;;;;;;10.90;7.15;;;12.00;99.90;;;;;;4194283;28;20021;-67
2023/02/18 02:08:01;;;;;;;10.48;7.72;;;12.00;99.90;;;;;;4191717;28;20036;-68
2023/02/18 02:10:03;;;;;;;11.98;7.53;;;11.90;99.90;;;;;;4187397;28;20087;-68
2023/02/18 02:12:17;;;;;;;8.77;6.93;;;11.90;99.90;;;;;;4194052;28;20035;-68
2023/02/18 02:14:26;;;;;;;12.27;7.25;;;11.90;99.90;;;;;;4191151;28;20403;-68
2023/02/18 02:16:47;;;;;;;10.10;7.45;;;11.90;99.90;;;;;;4194625;28;20040;-68
2023/02/18 02:19:14;;;;;;;12.10;7.57;;;11.90;99.90;;;;;;4204819;28;20045;-67
2023/02/18 02:21:34;;;;;;;10.25;6.57;;;11.90;99.90;;;;;;4193820;28;20494;-68
2023/02/18 02:23:55;;;;;;;9.82;6.90;;;11.90;99.90;;;;;;4194341;28;20487;-68
2023/02/18 02:26:44;;;;;;;9.38;7.63;;;11.90;99.90;;;;;;4196851;28;20123;-68
2023/02/18 02:29:16;;;;;;;11.00;8.25;;;11.90;99.90;;;;;;4186078;28;20046;-68
2023/02/18 02:31:38;;;;;;;8.13;6.70;;;11.80;99.90;;;;;;4178447;28;20041;-68
2023/02/18 02:34:00;;;;;;;10.50;7.55;;;11.80;99.90;;;;;;4185573;28;20036;-68
2023/02/18 02:36:26;;;;;;;9.32;7.90;;;11.80;99.90;;;;;;4180146;28;20068;-68
2023/02/18 02:38:37;;;;;;;13.50;8.23;;;11.80;99.90;;;;;;4182370;28;20033;-68
2023/02/18 02:41:06;;;;;;;8.52;6.65;;;11.80;99.90;;;;;;4184515;28;20040;-68
2023/02/18 02:43:33;;;;;;;9.73;6.50;;;11.70;99.90;;;;;;4179388;28;20033;-68
2023/02/18 02:45:53;;;;;;;10.45;7.93;;;11.70;99.90;;;;;;4178041;28;20037;-67
2023/02/18 02:48:08;;;;;;;8.20;6.90;;;11.70;99.90;;;;;;4181917;28;20048;-68
2023/02/18 02:50:16;;;;;;;9.30;6.70;;;11.70;99.90;;;;;;4175942;28;20039;-68
2023/02/18 02:52:29;;;;;;;8.40;6.53;;;11.70;99.90;;;;;;4175476;28;20073;-68
2023/02/18 02:54:30;;;;;;;;;;;11.70;99.90;;;;;;4181383;28;20115;-68
2023/02/18 02:56:30;;;;;;;7.78;6.03;;;11.70;99.90;;;;;;4187147;28;20386;-68
2023/02/18 02:58:31;;;;;;;8.57;6.80;;;11.70;99.90;;;;;;4183867;28;20101;-68
2023/02/18 03:00:44;;;;;;;9.95;6.18;;;11.70;99.90;;;;;;4182549;28;20044;-68
2023/02/18 03:03:05;;;;;;;7.90;6.55;;;11.60;99.90;;;;;;4185795;28;20048;-68
2023/02/18 03:05:34;;;;;;;11.20;8.07;;;11.60;99.90;;;;;;4182103;28;20033;-69
2023/02/18 03:07:50;;;;;;;9.50;6.78;;;11.60;99.90;;;;;;4175346;28;20025;-68
2023/02/18 03:10:12;;;;;;;11.80;8.10;;;11.60;99.90;;;;;;4178638;28;20032;-68
2023/02/18 03:12:34;;;;;;;12.85;8.20;;;11.60;99.90;;;;;;4183094;28;20029;-68
2023/02/18 03:15:04;;;;;;;12.18;7.55;;;11.60;99.90;;;;;;4185939;28;20037;-68
2023/02/18 03:17:37;;;;;;;11.63;8.32;;;11.60;99.90;;;;;;4194995;28;20052;-69
2023/02/18 03:19:46;;;;;;;10.52;7.60;;;11.50;99.90;;;;;;4188186;28;20032;-68
2023/02/18 03:21:56;;;;;;;12.90;8.15;;;11.50;99.90;;;;;;4176658;28;20033;-68
2023/02/18 03:24:06;;;;;;;10.45;8.20;;;11.60;99.90;;;;;;4178467;28;20029;-68
2023/02/18 03:26:07;;;;;;;13.05;9.50;;;11.60;99.90;;;;;;4185720;28;20028;-68
2023/02/18 03:28:13;;;;;;;11.43;8.50;;;11.50;99.90;;;;;;4194246;28;20029;-68
2023/02/18 03:30:21;;;;;;;11.85;8.63;;;11.50;99.90;;;;;;4184437;28;20032;-68
2023/02/18 03:32:24;;;;;;;12.63;8.70;;;11.60;99.90;;;;;;4179081;28;20110;-68
2023/02/18 03:34:30;;;;;;;13.48;9.32;;;11.50;99.90;;;;;;4182487;28;20040;-68
2023/02/18 03:36:33;;;;;;;14.45;8.90;;;11.60;99.90;;;;;;4187423;28;20066;-68
2023/02/18 03:38:39;;;;;;;14.65;9.55;;;11.50;99.90;;;;;;4184052;28;20029;-68
2023/02/18 03:40:39;;;;;;;12.55;9.00;;;11.60;99.90;;;;;;4183414;28;20028;-68
2023/02/18 03:42:40;;;;;;;9.95;7.00;;;11.50;99.90;;;;;;4184928;28;20036;-68
2023/02/18 03:44:41;;;;;;;13.18;8.30;;;11.50;99.90;;;;;;4187028;28;20055;-68
2023/02/18 03:46:43;;;;;;;11.15;7.70;;;11.50;99.90;;;;;;4181728;28;20029;-68
2023/02/18 03:48:44;;;;;;;11.68;8.50;;;11.50;99.90;;;;;;4186944;28;20465;-68
2023/02/18 03:50:44;;;;;;;13.05;8.18;;;11.50;99.90;;;;;;4192105;28;20064;-68
2023/02/18 03:52:45;;;;;;;11.98;8.57;;;11.50;99.90;;;;;;4191953;28;20444;-68
2023/02/18 03:54:45;;;;;;;10.93;7.65;;;11.50;99.90;;;;;;4183069;28;20043;-68
2023/02/18 03:56:46;;;;;;;11.32;7.47;;;11.50;99.90;;;;;;4189860;28;20044;-68
2023/02/18 03:58:46;;;;;;;9.38;6.50;;;11.50;99.90;;;;;;4191147;28;20047;-69
2023/02/18 04:00:47;;;;;;;11.23;7.55;;;11.50;99.90;;;;;;4193290;28;20035;-68
2023/02/18 04:02:48;;;;;;;7.80;6.20;;;11.50;99.90;;;;;;4186883;28;20029;-68
2023/02/18 04:04:48;;;;;;;8.45;6.55;;;11.50;99.90;;;;;;4179892;28;20119;-68
2023/02/18 04:06:49;;;;;;;9.45;7.10;;;11.50;99.90;;;;;;4183802;28;21208;-68
2023/02/18 04:08:49;;;;;;;6.50;5.32;;;11.50;99.90;;;;;;4190338;28;20056;-68
2023/02/18 04:10:50;;;;;;;9.38;6.13;;;11.50;99.90;;;;;;4190764;28;20161;-68
2023/02/18 04:12:51;;;;;;;7.18;5.88;;;11.50;99.90;;;;;;4190772;28;20037;-68
2023/02/18 04:14:51;;;;;;;6.60;5.22;;;11.50;99.90;;;;;;4193278;28;20047;-68
2023/02/18 04:16:52;;;;;;;5.97;4.47;;;11.50;99.90;;;;;;4192479;28;20032;-68
2023/02/18 04:18:52;;;;;;;4.55;3.90;;;11.50;99.90;;;;;;4193495;28;20368;-68
2023/02/18 04:20:53;;;;;;;7.07;4.70;;;11.50;99.90;;;;;;4191755;28;20429;-68
2023/02/18 04:22:54;;;;;;;5.97;4.28;;;11.50;99.90;;;;;;4186753;28;20036;-68
2023/02/18 04:24:54;;;;;;;5.75;4.35;;;11.50;99.90;;;;;;4184321;28;20040;-68
2023/02/18 04:26:55;;;;;;;4.45;3.85;;;11.50;99.90;;;;;;4197575;28;20433;-68
2023/02/18 04:28:55;;;;;;;4.95;3.70;;;11.50;99.90;;;;;;4214301;28;20028;-68
2023/02/18 04:30:56;;;;;;;4.68;3.67;;;11.50;99.90;;;;;;4211847;28;20048;-68
2023/02/18 04:32:57;;;;;;;5.43;4.00;;;11.50;99.90;;;;;;4217586;28;20032;-68
2023/02/18 04:34:57;;;;;;;3.70;3.08;;;11.40;99.90;;;;;;4224417;28;20060;-68
2023/02/18 04:36:58;;;;;;;5.13;3.20;;;11.40;99.90;;;;;;4219333;28;20032;-68
2023/02/18 04:38:59;;;;;;;5.57;3.00;;;11.40;99.90;;;;;;4213469;28;20071;-68
2023/02/18 04:40:59;;;;;;;5.13;2.85;;;11.40;99.90;;;;;;4199032;28;20389;-69
2023/02/18 04:43:00;;;;;;;3.97;2.70;;;11.30;99.90;;;;;;4218718;28;20039;-69
2023/02/18 04:45:01;;;;;;;2.88;2.08;;;11.30;99.90;;;;;;4208600;28;20028;-69
2023/02/18 04:47:03;;;;;;;3.08;2.10;;;11.30;99.90;;;;;;4206988;28;20035;-69
2023/02/18 04:49:03;;;;;;;2.13;1.92;;;11.30;99.90;;;;;;4205841;28;20058;-69
2023/02/18 04:51:04;;;;;;;3.00;2.20;;;11.20;99.90;;;;;;4213323;28;20021;-69
2023/02/18 04:53:05;;;;;;;4.93;1.98;;;11.20;99.90;;;;;;4204522;28;20075;-69
2023/02/18 04:55:06;;;;;;;2.28;1.90;;;11.20;99.90;;;;;;4210631;28;20047;-70
2023/02/18 04:57:06;;;;;;;1.92;1.70;;;11.20;99.90;;;;;;4217453;28;20040;-69
2023/02/18 04:59:07;;;;;;;1.60;1.50;;;11.20;99.90;;;;;;4218824;28;20129;-69
2023/02/18 05:01:07;;;;;;;2.63;1.92;;;11.30;99.90;;;;;;4215138;28;20028;-70
2023/02/18 05:03:08;;;;;;;2.03;1.80;;;11.30;99.90;;;;;;4209530;28;20116;-70
2023/02/18 05:05:09;;;;;;;2.25;1.85;;;11.20;99.90;;;;;;4212562;28;20043;-71
2023/02/18 05:07:10;;;;;;;1.50;1.30;;;11.20;99.90;;;;;;4217129;28;20036;-70
2023/02/18 05:09:11;;;;;;;2.75;2.00;;;11.20;99.90;;;;;;4217962;28;20163;-70
2023/02/18 05:11:12;;;;;;;2.33;1.63;;;11.20;99.90;;;;;;4213374;28;20033;-70
2023/02/18 05:13:12;;;;;;;2.17;1.63;;;11.20;99.90;;;;;;4216351;28;20319;-71
2023/02/18 05:15:13;;;;;;;1.83;1.40;;;11.20;99.90;;;;;;4219546;28;20036;-71
2023/02/18 05:17:13;;;;;;;1.80;1.50;;;11.20;99.90;;;;;;4220389;28;20034;-69
2023/02/18 05:19:15;;;;;;;2.60;1.70;;;11.20;99.90;;;;;;4222727;28;20039;-70
2023/02/18 05:21:15;;;;;;;1.70;1.42;;;11.20;99.90;;;;;;4216605;28;20046;-70
2023/02/18 05:23:19;;;;;;;2.10;1.48;;;11.20;99.90;;;;;;4218019;28;20036;-70
2023/02/18 05:25:19;;;;;;;1.67;1.40;;;11.20;99.90;;;;;;4221170;28;20119;-70
2023/02/18 05:27:20;;;;;;;2.17;1.65;;;11.10;99.90;;;;;;4220612;28;20533;-70
2023/02/18 05:29:20;;;;;;;1.60;1.40;;;11.10;99.90;;;;;;4217393;28;20437;-69
2023/02/18 05:31:21;;;;;;;1.23;1.10;;;11.10;99.90;;;;;;4212056;28;20051;-70
2023/02/18 05:33:21;;;;;;;2.67;1.55;;;11.10;99.90;;;;;;4212496;28;20128;-70
2023/02/18 05:35:22;;;;;;;1.60;1.20;;;11.10;99.90;;;;;;4219175;28;20043;-70
2023/02/18 05:37:22;;;;;;;1.98;1.27;;;11.10;99.90;;;;;;4204033;28;20047;-70
2023/02/18 05:39:23;;;;;;;2.22;1.35;;;11.10;99.90;;;;;;4209002;28;20037;-70
2023/02/18 05:41:24;;;;;;;3.03;1.63;;;11.10;99.90;;;;;;4213873;28;20056;-70
2023/02/18 05:43:24;;;;;;;1.70;1.42;;;11.10;99.90;;;;;;4212703;28;20163;-70
2023/02/18 05:45:25;;;;;;;1.40;1.20;;;11.10;99.90;;;;;;4207268;28;20036;-70
2023/02/18 05:47:25;;;;;;;6.93;1.70;;;11.10;99.90;;;;;;4209824;28;20052;-70
2023/02/18 05:49:27;;;;;;;2.28;1.40;;;11.10;99.90;;;;;;4218892;28;20036;-71
2023/02/18 05:51:28;;;;;;;1.77;1.33;;;11.10;99.90;;;;;;4217601;28;20046;-70
2023/02/18 05:53:28;;;;;;;1.50;1.30;;;11.10;99.90;;;;;;4216074;28;20487;-70
2023/02/18 05:55:29;;;;;;;1.52;1.33;;;11.10;99.90;;;;;;4217686;28;20141;-70
2023/02/18 05:57:30;;;;;;;1.75;1.33;;;11.10;99.90;;;;;;4214783;28;20042;-70
2023/02/18 05:59:30;;;;;;;1.42;1.27;;;11.10;99.90;;;;;;4217345;28;20036;-71
2023/02/18 06:01:31;;;;;;;1.65;1.40;;;11.10;99.90;;;;;;4212802;28;20383;-70
2023/02/18 06:03:32;;;;;;;2.15;1.77;;;11.10;99.90;;;;;;4209862;28;20039;-70
2023/02/18 06:05:32;;;;;;;2.30;1.73;;;11.10;99.90;;;;;;4219292;28;20436;-70
2023/02/18 06:07:33;;;;;;;1.95;1.58;;;11.10;99.90;;;;;;4219092;28;20110;-71
2023/02/18 06:09:33;;;;;;;2.63;1.80;;;11.10;99.90;;;;;;4215802;28;20169;-70
2023/02/18 06:11:35;;;;;;;2.17;1.60;;;11.10;99.90;;;;;;4213789;28;20025;-72
2023/02/18 06:13:35;;;;;;;2.53;1.50;;;11.00;99.90;;;;;;4220457;28;20051;-71
2023/02/18 06:15:36;;;;;;;2.00;1.48;;;11.00;99.90;;;;;;4212192;28;20482;-72
2023/02/18 06:17:37;;;;;;;1.77;1.40;;;11.10;99.90;;;;;;4209967;28;20028;-72
2023/02/18 06:19:38;;;;;;;2.03;1.50;;;11.10;99.90;;;;;;4215669;28;20046;-72
2023/02/18 06:21:38;;;;;;;1.50;1.33;;;11.10;99.90;;;;;;4209267;28;20139;-72
2023/02/18 06:23:39;;;;;;;1.55;1.40;;;11.10;99.90;;;;;;4208188;28;20074;-72
2023/02/18 06:25:40;;;;;;;1.40;1.30;;;11.10;99.90;;;;;;4207685;28;20020;-72
2023/02/18 06:27:41;;;;;;;2.00;1.58;;;11.00;99.90;;;;;;4211406;28;20040;-72
2023/02/18 06:29:42;;;;;;;1.70;1.33;;;11.00;99.90;;;;;;4215871;28;20432;-71
2023/02/18 06:31:42;;;;;;;1.83;1.35;;;11.00;99.90;;;;;;4206445;28;20036;-72
2023/02/18 06:33:43;;;;;;;1.38;1.20;;;11.10;99.90;;;;;;4213372;28;20068;-72
2023/02/18 06:35:56;;;;;;;2.45;2.05;;;11.10;99.90;;;;;;4210009;28;20081;-72
2023/02/18 06:37:56;;;;;;;2.92;1.77;;;11.00;99.90;;;;;;4211523;28;20494;-72
2023/02/18 06:39:57;;;;;;;2.28;1.85;;;11.00;99.90;;;;;;4209993;28;20028;-72
2023/02/18 06:41:58;;;;;;;2.65;1.92;;;11.00;99.90;;;;;;4214965;28;20054;-71
2023/02/18 06:43:58;;;;;;;2.78;2.03;;;11.00;99.90;;;;;;4216830;28;20081;-72
2023/02/18 06:45:59;;;;;;;3.75;2.20;;;11.00;99.90;;;;;;4218251;28;20036;-72
2023/02/18 06:48:00;;;;;;;3.22;2.50;;;11.00;99.90;;;;;;4216824;28;20386;-71
2023/02/18 06:50:00;;;;;;;3.83;2.85;;;10.90;99.90;;;;;;4216981;28;20651;-72
2023/02/18 06:52:01;;;;;;;4.25;2.58;;;11.00;99.90;;;;;;4214860;28;20031;-72
2023/02/18 06:54:02;;;;;;;3.10;2.47;;;10.90;99.90;;;;;;4212762;28;21666;-72
2023/02/18 06:56:03;;;;;;;4.95;2.90;;;10.90;99.90;;;;;;4217670;28;20439;-72
2023/02/18 06:58:04;;;;;;;6.47;2.75;;;10.90;99.90;;;;;;4215515;28;20024;-72
2023/02/18 07:00:05;;;;;;;3.20;2.15;;;10.90;99.90;;;;;;4217384;28;20021;-72
2023/02/18 07:02:06;;;;;;;3.60;2.38;;;10.90;99.90;;;;;;4196198;28;20102;-72
2023/02/18 07:04:06;;;;;;;2.92;2.30;;;10.90;99.90;;;;;;4217507;28;20023;-70
2023/02/18 07:06:07;;;;;;;3.88;2.85;;;10.90;99.90;;;;;;4217333;28;20054;-71
2023/02/18 07:08:08;;;;;;;4.13;2.30;;;10.90;99.90;;;;;;4195076;28;20036;-71
2023/02/18 07:10:09;;;;;;;3.33;2.22;;;10.80;99.90;;;;;;4216156;28;20052;-73
2023/02/18 07:12:09;;;;;;;3.17;2.40;;;10.90;99.90;;;;;;4212664;28;20433;-71
2023/02/18 07:14:10;;;;;;;2.88;2.20;;;10.80;99.90;;;;;;4212921;28;20039;-72
2023/02/18 07:16:11;;;;;;;3.22;2.35;;;10.80;99.90;;;;;;4208068;28;20054;-72
2023/02/18 07:18:11;;;;;;;2.95;2.05;;;10.80;99.90;;;;;;4202320;28;20020;-72
2023/02/18 07:20:12;;;;;;;3.90;2.80;;;10.80;99.90;;;;;;4212731;28;20475;-73
2023/02/18 07:22:13;;;;;;;3.45;2.38;;;10.80;99.90;;;;;;4206282;28;20817;-71
2023/02/18 07:24:13;;;;;;;4.00;2.88;;;10.80;99.90;;;;;;4205131;28;20124;-72
2023/02/18 07:26:14;;;;;;;4.55;2.67;;;10.80;99.90;;;;;;4210464;28;20134;-72
2023/02/18 07:28:15;;;;;;;3.55;2.70;;;10.80;99.90;;;;;;4217115;28;20115;-72
2023/02/18 07:30:16;;;;;;;3.17;2.58;;;10.80;99.90;;;;;;4208456;28;20036;-72
2023/02/18 07:32:18;;;;;;;3.25;2.38;;;10.80;99.90;;;;;;4214340;28;20031;-72
2023/02/18 07:34:19;;;;;;;5.25;2.88;;;10.90;99.90;;;;;;4217109;28;20496;-72
2023/02/18 07:36:19;;;;;;;3.42;2.08;;;10.90;99.90;;;;;;4214856;28;20040;-72
2023/02/18 07:38:21;;;;;;;3.42;2.33;;;10.80;99.90;;;;;;4216974;28;20043;-73
2023/02/18 07:40:21;;;;;;;3.80;2.17;;;10.90;99.90;;;;;;4219218;28;20047;-72
2023/02/18 07:42:22;;;;;;;2.63;1.65;;;10.90;99.90;;;;;;4214400;28;20081;-72
2023/02/18 07:44:26;;;;;;;1.48;1.38;;;10.90;99.90;;;;;;4209720;28;20039;-72
2023/02/18 07:46:27;;;;;;;2.63;1.63;;;10.90;99.90;;;;;;4199364;28;20040;-72
2023/02/18 07:48:27;;;;;;;2.63;1.88;;;10.90;99.90;;;;;;4208595;28;20094;-72
2023/02/18 07:50:33;;;;;;;1.50;1.35;;;10.90;99.90;;;;;;4210362;28;20043;-72
2023/02/18 07:52:34;;;;;;;1.52;1.20;;;10.90;99.90;;;;;;4209005;28;20077;-72
2023/02/18 07:54:35;;;;;;;2.35;1.42;;;10.90;99.90;;;;;;4214900;28;20048;-72
2023/02/18 07:56:35;;;;;;;2.05;1.45;;;10.90;99.90;;;;;;4202995;28;20036;-72
2023/02/18 07:58:37;;;;;;;2.15;1.80;;;10.90;99.90;;;;;;4202212;28;20063;-73
2023/02/18 08:00:38;;;;;;;1.52;1.38;;;10.80;99.90;;;;;;4209144;28;20086;-72
2023/02/18 08:02:38;;;;;;;1.75;1.30;;;10.90;99.90;;;;;;4207125;28;20498;-72
2023/02/18 08:04:39;;;;;;;2.13;1.38;;;10.90;99.90;;;;;;4213594;28;20024;-72
2023/02/18 08:06:44;;;;;;;2.13;1.20;;;10.80;99.90;;;;;;4208460;28;20050;-72
2023/02/18 08:08:45;;;;;;;2.83;1.40;;;10.80;99.90;;;;;;4212606;28;20035;-72
2023/02/18 08:10:47;;;;;;;2.72;1.40;;;10.80;99.90;;;;;;4214441;28;20029;-72
2023/02/18 08:12:47;;;;;;;2.30;1.40;;;10.80;99.90;;;;;;4219644;28;20036;-72
2023/02/18 08:14:48;;;;;;;3.85;1.42;;;10.80;99.90;;;;;;4215102;28;20040;-72
2023/02/18 08:16:48;;;;;;;4.47;1.75;;;10.80;99.90;;;;;;4211959;28;20043;-72
2023/02/18 08:18:50;;;;;;;1.88;1.17;;;10.70;99.90;;;;;;4212160;28;20047;-72
2023/02/18 08:20:51;;;;;;;2.90;1.95;;;10.80;99.90;;;;;;4207725;28;20433;-72
2023/02/18 08:22:52;;;;;;;3.45;1.75;;;10.80;99.90;;;;;;4209229;28;20059;-72
2023/02/18 08:24:55;;;;;;;5.32;1.58;;;10.70;99.90;;;;;;4218060;28;20032;-71
2023/02/18 08:26:55;;;;;;;;;;;10.70;99.90;;;;;;4214737;28;20491;-72
2023/02/18 08:28:56;;;;;;;3.95;1.63;;;10.70;99.90;;;;;;4220573;28;19914;-72
2023/02/18 08:30:58;;;;;;;7.45;2.00;;;10.70;99.90;;;;;;4207698;28;20036;-72
2023/02/18 08:32:58;;;;;;;4.30;1.80;;;10.70;99.90;;;;;;4214773;28;20093;-72
2023/02/18 08:34:59;;;;;;;5.47;1.70;;;10.60;99.90;;;;;;4210743;28;20434;-72
2023/02/18 08:37:01;;;;;;;8.30;1.90;;;10.60;99.90;;;;;;4213566;28;20039;-72
2023/02/18 08:39:01;;;;;;;8.75;2.60;;;10.60;99.90;;;;;;4209279;28;20039;-72
2023/02/18 08:41:04;;;;;;;6.97;1.80;;;10.60;99.90;;;;;;4211486;28;20044;-72
2023/02/18 08:43:05;;;;;;;7.40;1.85;;;10.60;99.90;;;;;;4216555;28;20028;-72
2023/02/18 08:45:06;;;;;;;9.02;2.10;;;10.60;99.90;;;;;;4210507;28;20563;-73
2023/02/18 08:47:06;;;;;;;9.65;1.95;;;10.60;99.90;;;;;;4218421;28;20050;-73
2023/02/18 08:49:07;;;;;;;12.20;2.20;;;10.60;99.90;;;;;;4215358;28;20503;-71
2023/02/18 08:51:17;;;;;;;12.48;2.83;;;10.50;99.90;;;;;;4211192;28;20036;-71
2023/02/18 08:53:19;;;;;;;9.60;2.15;;;10.50;99.90;;;;;;4209148;28;20067;-72
2023/02/18 08:55:20;;;;;;;10.55;2.50;;;10.60;99.90;;;;;;4204788;28;20124;-71
2023/02/18 08:57:20;;;;;;;10.68;2.38;;;10.60;99.90;;;;;;4211766;28;20039;-72
2023/02/18 08:59:21;;;;;;;10.35;2.42;;;10.50;99.90;;;;;;4211416;28;20060;-72
2023/02/18 09:01:22;;;;;;;5.93;1.70;;;10.50;99.90;;;;;;4212265;28;20032;-71
2023/02/18 09:03:22;;;;;;;9.68;2.95;;;10.60;99.90;;;;;;4212332;28;20048;-71
2023/02/18 09:05:23;;;;;;;8.27;2.13;;;10.60;99.90;;;;;;4210721;28;20032;-72
2023/02/18 09:07:23;;;;;;;11.77;3.13;;;10.60;99.90;;;;;;4219623;28;20028;-72
2023/02/18 09:09:24;;;;;;;11.05;2.80;;;10.60;99.90;;;;;;4213926;28;20043;-72
2023/02/18 09:11:24;;;;;;;10.05;2.15;;;10.60;99.90;;;;;;4214915;28;20042;-72
2023/02/18 09:13:26;;;;;;;7.78;2.05;;;10.60;99.90;;;;;;4223483;28;20039;-72
2023/02/18 09:15:26;;;;;;;7.65;1.98;;;10.60;99.90;;;;;;4214003;28;20047;-72
2023/02/18 09:17:27;;;;;;;6.15;2.17;;;10.60;99.90;;;;;;4215182;28;20036;-72
2023/02/18 09:19:28;;;;;;;10.52;2.80;;;10.60;99.90;;;;;;4211785;28;20489;-72
2023/02/18 09:21:28;;;;;;;11.10;2.67;;;10.60;99.90;;;;;;4214899;28;20487;-72
2023/02/18 09:23:31;;;;;;;10.73;2.47;;;10.60;99.90;;;;;;4221867;28;20432;-72
2023/02/18 09:25:31;;;;;;;14.63;2.95;;;10.60;99.90;;;;;;4217301;28;20043;-72
2023/02/18 09:27:32;;;;;;;12.75;2.65;;;10.60;99.90;;;;;;4221293;28;20032;-72
2023/02/18 09:29:38;;;;;;;10.27;2.72;;;10.60;99.90;;;;;;4200709;28;20100;-72
2023/02/18 09:31:39;;;;;;;12.70;3.05;;;10.60;99.90;;;;;;4207568;28;20020;-72
2023/02/18 09:33:42;;;;;;;11.90;2.95;;;10.60;99.90;;;;;;4214746;28;20483;-71
2023/02/18 09:35:44;;;;;;;12.98;2.90;;;10.60;99.90;;;;;;4195564;28;20039;-71
2023/02/18 09:37:45;;;;;;;12.30;2.60;;;10.60;99.90;;;;;;4215426;28;20063;-71
2023/02/18 09:39:47;;;;;;;12.32;2.72;;;10.60;99.90;;;;;;4210957;28;20039;-70
2023/02/18 09:41:51;;;;;;;11.95;2.65;;;10.70;99.90;;;;;;4209935;28;20485;-71
2023/02/18 09:44:14;;;;;;;9.48;2.20;;;10.70;99.90;;;;;;4211678;28;20044;-71
2023/02/18 09:46:24;;;;;;;11.55;2.65;;;10.70;99.90;;;;;;4209455;28;20035;-70
2023/02/18 09:48:31;;;;;;;8.40;1.95;;;10.80;99.90;;;;;;4212610;28;20064;-72
2023/02/18 09:50:33;;;;;;;8.15;2.30;;;10.80;99.90;;;;;;4204667;28;20032;-71
2023/02/18 09:52:38;;;;;;;10.98;2.90;;;10.80;99.90;;;;;;4215307;28;20032;-71
2023/02/18 09:54:38;;;;;;;12.98;2.70;;;10.80;99.90;;;;;;4206974;28;20032;-71
2023/02/18 09:56:41;;;;;;;10.40;3.00;;;10.80;99.90;;;;;;4216398;28;20035;-70
2023/02/18 09:58:43;;;;;;;7.47;2.17;;;10.80;99.90;;;;;;4213619;28;20054;-71
2023/02/18 10:00:51;;;;;;;8.37;2.57;;;10.80;99.90;;;;;;4209585;28;20035;-71
2023/02/18 10:03:14;;;;;;;12.32;3.00;;;10.80;99.90;;;;;;4211293;28;20756;-71
2023/02/18 10:05:15;;;;;;;;;;;10.90;99.90;;;;;;4176375;28;20043;-70
2023/02/18 10:07:31;;;;;;;11.75;2.22;;;10.80;99.90;;;;;;4208966;28;20355;-70
2023/02/18 10:09:37;;;;;;;9.10;2.17;;;10.80;99.90;;;;;;4195447;28;20037;-71
2023/02/18 10:11:41;;;;;;;10.95;3.10;;;10.90;99.90;;;;;;4201787;28;20520;-71
2023/02/18 10:13:43;;;;;;;7.80;2.38;;;10.90;99.90;;;;;;4194132;28;20035;-71
2023/02/18 10:15:44;;;;;;;14.98;3.00;;;10.90;99.90;;;;;;4193670;28;20119;-72
2023/02/18 10:17:46;;;;;;;16.60;2.80;;;10.90;99.90;;;;;;4195133;28;20028;-71
2023/02/18 10:19:48;;;;;;;12.63;2.55;;;10.80;99.90;;;;;;4192094;28;20035;-71
2023/02/18 10:21:51;;;;;;;9.30;2.42;;;10.70;99.90;;;;;;4190400;28;20033;-71
2023/02/18 10:24:14;;;;;;;11.68;2.70;;;10.80;99.90;;;;;;4194929;28;20044;-71
2023/02/18 10:26:17;;;;;;;14.52;4.30;;;10.70;99.90;;;;;;4192375;28;20102;-71
2023/02/18 10:28:18;;;;;;;;;;;10.80;99.90;;;;;;4195455;28;20040;-72
2023/02/18 10:30:29;;;;;;;8.57;2.50;;;10.70;99.90;;;;;;4192146;28;20389;-72
2023/02/18 10:32:38;;;;;;;10.60;2.38;;;10.70;99.90;;;;;;4191788;28;20044;-72
2023/02/18 10:34:44;;;;;;;8.15;2.80;;;10.70;99.90;;;;;;4191921;28;20106;-70
2023/02/18 10:36:50;;;;;;;7.65;2.70;;;10.70;99.90;;;;;;4188444;28;20147;-69
2023/02/18 10:39:09;;;;;;;8.93;2.50;;;10.70;99.90;;;;;;4194981;28;20037;-71